Shell Bluff, Georgia
Current Conditions -  °F | °C
As of 7:53 PM on Saturday 22 Nov 2014 (Local Time) from KAGS Reporting Station
Scattered Clouds Scattered Clouds  
Wind Chill: 49°   Ceiling: Unl
Heat Index: 49°   Visibility: 10mi
Dew Point: 30°   Wind: 0mph
Humidity: 48%   Direction: NA
Pressure: 30.31"   Gusts: NA
Location:  33.0894°N, 81.978°W
Report Text: KAGS 230053Z 00000KT 10SM SCT110 09/M01 A3031 RMK AO2 SLP263 T00941011
Loading
Personal Weather Stations






























Interactive Weather Map New forecast layout! Learn more

10-Day Weather Forecast

Advertisements
Track Severe Weather on mobile